Liberal Mid-America Regional Airport
KLBL : rendu visible

Aérodrome :











RETROUVEZ-NOUS SUR...

 
LOGIN :

S'inscrire | Disclaimer

   EN    FR    IT 

 









Légende :    VFR   VFR Marginal   IFR   IFR Intensif   IFR Très Intensif
Visi : 
Plafond : 
>= 8 km
>= 3000ft
5 à 8 km
1000 à 3000 ft
1500m à 5 km
500 à 1000 ft
800 à 1500m
200 à 500 ft
< 800m
< 200 ft
Symboles :   Orages  Brouillard  Fortes neiges  Fortes précipitations  Vent > 20 kt






- Altitude de l'aérodrome : 2885 ft
- Code IATA : LBL


KLBL - Liberal Mid-America Regional

DERNIER METAR :
  • 262256Z AUTO 21005KT 10SM CLR 36/04 A2969 RMK AO2 SLP017 T03610044

METARs EXPIRÉS :
  • 262156Z AUTO 24006KT 10SM CLR 36/04 A2970 RMK AO2 SLP020 T03610039
  • 262129Z AUTO 26008KT 10SM CLR 36/03 A2970 RMK AO2
  • 262121Z AUTO 23004KT 1SM HZ CLR 36/04 A2970 RMK AO2
  • 262056Z AUTO 22003KT 10SM CLR 36/03 A2971 RMK AO2 SLP023 T03560033 56023

TAF KLBL
Valide du 26 à 18h jusqu'au 27 à 18h UTC


261720Z 2618/2718 21011KT P6SM SKC
FM270000 18006KT P6SM SKC
FM271200 02015G23KT P6SM FEW250
FIR KZKC / Amérique du Nord



MET'MAP, la Météo Aéronautique d'un coup d'oeil ! - Copyright ORBIFLY Décembre 2007 - Disclaimer

ORBIFLY MET'MAP TEAM :

Programmation & Développement : Alexandra Zaïnal
Sur une idée originale de : Baudouin d'Aumeries
Assistance à la programmation : Marc-Olivier Méhu
Soutien technique & logistique : Manuel Goepfert

Contact : metmap@orbifly.com




SOURCES & CREDITS :

   NOAA       Earth
Advisory